sensor_id;sensor_type;location;lat;lon;timestamp;temperature;humidity
64111;DHT22;50401;48.188;11.566;2023-02-28T00:02:20;-1.33;70.28
64111;DHT22;50401;48.188;11.566;2023-02-28T00:04:45;-1.33;70.48
64111;DHT22;50401;48.188;11.566;2023-02-28T00:07:19;-1.54;70.92
64111;DHT22;50401;48.188;11.566;2023-02-28T00:09:44;-1.58;70.82
64111;DHT22;50401;48.188;11.566;2023-02-28T00:12:10;-1.60;71.02
64111;DHT22;50401;48.188;11.566;2023-02-28T00:14:38;-1.64;71.22
64111;DHT22;50401;48.188;11.566;2023-02-28T00:17:03;-1.65;71.58
64111;DHT22;50401;48.188;11.566;2023-02-28T00:19:28;-1.50;71.11
64111;DHT22;50401;48.188;11.566;2023-02-28T00:21:54;-1.61;71.04
64111;DHT22;50401;48.188;11.566;2023-02-28T00:24:19;-1.57;71.01
64111;DHT22;50401;48.188;11.566;2023-02-28T00:26:44;-1.61;71.03
64111;DHT22;50401;48.188;11.566;2023-02-28T00:29:10;-1.57;71.14
64111;DHT22;50401;48.188;11.566;2023-02-28T00:31:35;-1.65;71.36
64111;DHT22;50401;48.188;11.566;2023-02-28T00:34:01;-1.67;71.43
64111;DHT22;50401;48.188;11.566;2023-02-28T00:36:26;-1.75;71.67
64111;DHT22;50401;48.188;11.566;2023-02-28T00:38:51;-1.92;72.51
64111;DHT22;50401;48.188;11.566;2023-02-28T00:41:17;-1.78;72.19
64111;DHT22;50401;48.188;11.566;2023-02-28T00:43:42;-1.76;71.83
64111;DHT22;50401;48.188;11.566;2023-02-28T00:46:08;-1.69;71.80
64111;DHT22;50401;48.188;11.566;2023-02-28T00:48:33;-1.87;72.55
64111;DHT22;50401;48.188;11.566;2023-02-28T00:50:59;-1.79;72.24
64111;DHT22;50401;48.188;11.566;2023-02-28T00:53:25;-1.71;72.09
64111;DHT22;50401;48.188;11.566;2023-02-28T00:55:50;-1.68;71.92
64111;DHT22;50401;48.188;11.566;2023-02-28T00:58:15;-1.67;71.87
64111;DHT22;50401;48.188;11.566;2023-02-28T01:00:41;-1.69;71.80
64111;DHT22;50401;48.188;11.566;2023-02-28T01:03:06;-1.65;71.92
64111;DHT22;50401;48.188;11.566;2023-02-28T01:05:32;-1.69;71.98
64111;DHT22;50401;48.188;11.566;2023-02-28T01:07:57;-1.71;72.00
64111;DHT22;50401;48.188;11.566;2023-02-28T01:10:22;-1.76;72.23
64111;DHT22;50401;48.188;11.566;2023-02-28T01:12:48;-1.69;72.11
64111;DHT22;50401;48.188;11.566;2023-02-28T01:15:13;-1.58;72.03
64111;DHT22;50401;48.188;11.566;2023-02-28T01:17:38;-1.67;72.09
64111;DHT22;50401;48.188;11.566;2023-02-28T01:20:04;-1.72;72.10
64111;DHT22;50401;48.188;11.566;2023-02-28T01:22:30;-1.68;72.14
64111;DHT22;50401;48.188;11.566;2023-02-28T01:24:55;-1.76;72.47
64111;DHT22;50401;48.188;11.566;2023-02-28T01:27:21;-1.83;72.50
64111;DHT22;50401;48.188;11.566;2023-02-28T01:29:46;-1.90;72.89
64111;DHT22;50401;48.188;11.566;2023-02-28T01:32:11;-1.87;72.70
64111;DHT22;50401;48.188;11.566;2023-02-28T01:34:37;-1.87;72.76
64111;DHT22;50401;48.188;11.566;2023-02-28T01:37:02;-1.90;72.89
64111;DHT22;50401;48.188;11.566;2023-02-28T01:39:28;-1.85;72.77
64111;DHT22;50401;48.188;11.566;2023-02-28T01:41:54;-1.81;72.54
64111;DHT22;50401;48.188;11.566;2023-02-28T01:47:19;-1.87;72.85
64111;DHT22;50401;48.188;11.566;2023-02-28T01:49:45;-1.83;72.75
64111;DHT22;50401;48.188;11.566;2023-02-28T01:52:11;-1.85;72.71
64111;DHT22;50401;48.188;11.566;2023-02-28T01:54:43;-1.83;72.65
64111;DHT22;50401;48.188;11.566;2023-02-28T01:57:14;-1.83;72.72
64111;DHT22;50401;48.188;11.566;2023-02-28T01:59:52;-1.96;72.53
64111;DHT22;50401;48.188;11.566;2023-02-28T02:02:21;-1.93;73.12
64111;DHT22;50401;48.188;11.566;2023-02-28T02:07:35;-1.92;73.15
64111;DHT22;50401;48.188;11.566;2023-02-28T02:15:51;-1.93;73.28
64111;DHT22;50401;48.188;11.566;2023-02-28T02:18:37;-2.04;73.57
64111;DHT22;50401;48.188;11.566;2023-02-28T02:21:15;-2.02;73.57
64111;DHT22;50401;48.188;11.566;2023-02-28T02:27:16;-2.03;73.73
64111;DHT22;50401;48.188;11.566;2023-02-28T02:33:09;-2.00;73.81
64111;DHT22;50401;48.188;11.566;2023-02-28T02:41:40;-2.02;73.83
64111;DHT22;50401;48.188;11.566;2023-02-28T02:46:48;-2.11;74.14
64111;DHT22;50401;48.188;11.566;2023-02-28T02:49:28;-2.06;74.16
64111;DHT22;50401;48.188;11.566;2023-02-28T02:51:56;-2.06;74.07
64111;DHT22;50401;48.188;11.566;2023-02-28T02:54:27;-2.06;74.15
64111;DHT22;50401;48.188;11.566;2023-02-28T02:56:56;-2.14;74.39
64111;DHT22;50401;48.188;11.566;2023-02-28T02:59:23;-2.15;74.55
64111;DHT22;50401;48.188;11.566;2023-02-28T03:01:58;-2.21;74.75
64111;DHT22;50401;48.188;11.566;2023-02-28T03:04:28;-2.26;74.92
64111;DHT22;50401;48.188;11.566;2023-02-28T03:06:55;-2.24;75.06
64111;DHT22;50401;48.188;11.566;2023-02-28T03:09:25;-2.28;75.15
64111;DHT22;50401;48.188;11.566;2023-02-28T03:11:52;-2.28;75.31
64111;DHT22;50401;48.188;11.566;2023-02-28T03:14:40;-2.28;75.43
64111;DHT22;50401;48.188;11.566;2023-02-28T03:25:12;-2.30;75.80
64111;DHT22;50401;48.188;11.566;2023-02-28T03:30:39;-2.30;75.81
64111;DHT22;50401;48.188;11.566;2023-02-28T03:33:19;-2.30;75.96
64111;DHT22;50401;48.188;11.566;2023-02-28T03:35:58;-2.19;75.79
64111;DHT22;50401;48.188;11.566;2023-02-28T03:38:48;-2.23;75.85
64111;DHT22;50401;48.188;11.566;2023-02-28T03:41:23;-2.24;75.89
64111;DHT22;50401;48.188;11.566;2023-02-28T03:43:55;-2.20;75.96
64111;DHT22;50401;48.188;11.566;2023-02-28T03:46:25;-2.19;75.97
64111;DHT22;50401;48.188;11.566;2023-02-28T03:48:58;-2.13;75.88
64111;DHT22;50401;48.188;11.566;2023-02-28T03:51:27;-2.14;75.85
64111;DHT22;50401;48.188;11.566;2023-02-28T03:53:57;-2.15;75.91
64111;DHT22;50401;48.188;11.566;2023-02-28T03:56:32;-2.17;76.00
64111;DHT22;50401;48.188;11.566;2023-02-28T03:59:22;-2.19;76.30
64111;DHT22;50401;48.188;11.566;2023-02-28T04:01:50;-2.24;76.23
64111;DHT22;50401;48.188;11.566;2023-02-28T04:04:17;-2.23;76.40
64111;DHT22;50401;48.188;11.566;2023-02-28T04:06:43;-2.27;76.37
64111;DHT22;50401;48.188;11.566;2023-02-28T04:09:12;-2.24;76.49
64111;DHT22;50401;48.188;11.566;2023-02-28T04:14:07;-2.30;76.63
64111;DHT22;50401;48.188;11.566;2023-02-28T04:16:34;-2.34;76.83
64111;DHT22;50401;48.188;11.566;2023-02-28T04:19:00;-2.28;76.78
64111;DHT22;50401;48.188;11.566;2023-02-28T04:21:31;-2.27;76.79
64111;DHT22;50401;48.188;11.566;2023-02-28T04:23:57;-2.20;76.68
64111;DHT22;50401;48.188;11.566;2023-02-28T04:26:32;-2.21;76.83
64111;DHT22;50401;48.188;11.566;2023-02-28T04:28:58;-2.13;76.67
64111;DHT22;50401;48.188;11.566;2023-02-28T04:31:23;-2.10;76.49
64111;DHT22;50401;48.188;11.566;2023-02-28T04:33:49;-2.09;76.75
64111;DHT22;50401;48.188;11.566;2023-02-28T04:36:14;-2.06;76.63
64111;DHT22;50401;48.188;11.566;2023-02-28T04:38:43;-2.06;76.82
64111;DHT22;50401;48.188;11.566;2023-02-28T04:41:09;-2.07;76.73
64111;DHT22;50401;48.188;11.566;2023-02-28T04:43:34;-2.03;76.70
64111;DHT22;50401;48.188;11.566;2023-02-28T04:46:01;-2.26;77.73
64111;DHT22;50401;48.188;11.566;2023-02-28T04:48:28;-2.06;77.21
64111;DHT22;50401;48.188;11.566;2023-02-28T04:50:54;-2.02;77.01
64111;DHT22;50401;48.188;11.566;2023-02-28T04:53:20;-1.96;76.84
64111;DHT22;50401;48.188;11.566;2023-02-28T04:55:46;-1.95;76.94
64111;DHT22;50401;48.188;11.566;2023-02-28T04:58:13;-1.92;76.86
64111;DHT22;50401;48.188;11.566;2023-02-28T05:00:38;-1.82;76.77
64111;DHT22;50401;48.188;11.566;2023-02-28T05:03:04;-1.81;76.68
64111;DHT22;50401;48.188;11.566;2023-02-28T05:05:29;-1.74;76.60
64111;DHT22;50401;48.188;11.566;2023-02-28T05:07:55;-1.69;76.39
64111;DHT22;50401;48.188;11.566;2023-02-28T05:10:21;-1.68;76.34
64111;DHT22;50401;48.188;11.566;2023-02-28T05:12:46;-1.75;76.42
64111;DHT22;50401;48.188;11.566;2023-02-28T05:15:14;-1.78;76.44
64111;DHT22;50401;48.188;11.566;2023-02-28T05:17:39;-1.74;76.54
64111;DHT22;50401;48.188;11.566;2023-02-28T05:20:05;-1.86;76.84
64111;DHT22;50401;48.188;11.566;2023-02-28T05:22:31;-1.87;76.89
64111;DHT22;50401;48.188;11.566;2023-02-28T05:24:57;-1.83;76.93
64111;DHT22;50401;48.188;11.566;2023-02-28T05:27:22;-1.86;76.92
64111;DHT22;50401;48.188;11.566;2023-02-28T05:29:48;-1.85;76.73
64111;DHT22;50401;48.188;11.566;2023-02-28T05:32:14;-1.81;76.56
64111;DHT22;50401;48.188;11.566;2023-02-28T05:34:41;-1.83;76.58
64111;DHT22;50401;48.188;11.566;2023-02-28T05:37:11;-1.79;76.47
64111;DHT22;50401;48.188;11.566;2023-02-28T05:39:37;-2.02;76.93
64111;DHT22;50401;48.188;11.566;2023-02-28T05:42:03;-1.85;76.91
64111;DHT22;50401;48.188;11.566;2023-02-28T05:44:28;-1.81;76.45
64111;DHT22;50401;48.188;11.566;2023-02-28T05:46:53;-1.78;76.35
64111;DHT22;50401;48.188;11.566;2023-02-28T05:49:19;-1.76;76.44
64111;DHT22;50401;48.188;11.566;2023-02-28T05:51:44;-1.82;76.30
64111;DHT22;50401;48.188;11.566;2023-02-28T05:54:10;-1.81;76.42
64111;DHT22;50401;48.188;11.566;2023-02-28T05:56:35;-1.87;76.56
64111;DHT22;50401;48.188;11.566;2023-02-28T05:59:02;-1.87;76.45
64111;DHT22;50401;48.188;11.566;2023-02-28T06:01:41;-1.79;76.49
64111;DHT22;50401;48.188;11.566;2023-02-28T06:04:08;-1.82;76.31
64111;DHT22;50401;48.188;11.566;2023-02-28T06:06:34;-1.72;76.28
64111;DHT22;50401;48.188;11.566;2023-02-28T06:09:01;-1.79;76.20
64111;DHT22;50401;48.188;11.566;2023-02-28T06:11:27;-2.07;77.17
64111;DHT22;50401;48.188;11.566;2023-02-28T06:13:57;-1.93;76.68
64111;DHT22;50401;48.188;11.566;2023-02-28T06:16:23;-2.13;77.39
64111;DHT22;50401;48.188;11.566;2023-02-28T06:18:49;-1.96;76.95
64111;DHT22;50401;48.188;11.566;2023-02-28T06:21:14;-2.14;76.67
64111;DHT22;50401;48.188;11.566;2023-02-28T06:23:40;-2.06;76.67
64111;DHT22;50401;48.188;11.566;2023-02-28T06:26:05;-2.14;77.45
64111;DHT22;50401;48.188;11.566;2023-02-28T06:28:31;-2.09;76.70
64111;DHT22;50401;48.188;11.566;2023-02-28T06:30:57;-1.92;76.39
64111;DHT22;50401;48.188;11.566;2023-02-28T06:33:22;-1.87;76.26
64111;DHT22;50401;48.188;11.566;2023-02-28T06:35:50;-1.96;76.50
64111;DHT22;50401;48.188;11.566;2023-02-28T06:38:16;-2.00;76.39
64111;DHT22;50401;48.188;11.566;2023-02-28T06:40:41;-2.15;77.46
64111;DHT22;50401;48.188;11.566;2023-02-28T06:43:07;-2.09;76.85
64111;DHT22;50401;48.188;11.566;2023-02-28T06:45:32;-1.99;76.88
64111;DHT22;50401;48.188;11.566;2023-02-28T06:47:58;-1.78;76.22
64111;DHT22;50401;48.188;11.566;2023-02-28T06:50:25;-1.68;75.87
64111;DHT22;50401;48.188;11.566;2023-02-28T06:52:50;-1.61;75.60
64111;DHT22;50401;48.188;11.566;2023-02-28T06:55:19;-1.87;76.21
64111;DHT22;50401;48.188;11.566;2023-02-28T06:57:44;-1.92;76.73
64111;DHT22;50401;48.188;11.566;2023-02-28T07:00:10;-1.96;76.78
64111;DHT22;50401;48.188;11.566;2023-02-28T07:02:36;-1.79;76.51
64111;DHT22;50401;48.188;11.566;2023-02-28T07:05:03;-2.02;76.27
64111;DHT22;50401;48.188;11.566;2023-02-28T07:07:29;-1.85;76.02
64111;DHT22;50401;48.188;11.566;2023-02-28T07:09:54;-1.75;76.01
64111;DHT22;50401;48.188;11.566;2023-02-28T07:12:20;-1.95;76.53
64111;DHT22;50401;48.188;11.566;2023-02-28T07:14:46;-1.75;76.41
64111;DHT22;50401;48.188;11.566;2023-02-28T07:17:11;-1.69;75.85
64111;DHT22;50401;48.188;11.566;2023-02-28T07:19:38;-1.62;75.72
64111;DHT22;50401;48.188;11.566;2023-02-28T07:22:03;-1.58;75.47
64111;DHT22;50401;48.188;11.566;2023-02-28T07:24:29;-1.57;75.45
64111;DHT22;50401;48.188;11.566;2023-02-28T07:26:55;-1.55;75.36
64111;DHT22;50401;48.188;11.566;2023-02-28T07:29:21;-1.85;76.30
64111;DHT22;50401;48.188;11.566;2023-02-28T07:31:46;-1.89;76.43
64111;DHT22;50401;48.188;11.566;2023-02-28T07:34:12;-1.72;75.86
64111;DHT22;50401;48.188;11.566;2023-02-28T07:36:38;-1.65;75.61
64111;DHT22;50401;48.188;11.566;2023-02-28T07:39:03;-1.57;75.09
64111;DHT22;50401;48.188;11.566;2023-02-28T07:41:30;-1.50;74.97
64111;DHT22;50401;48.188;11.566;2023-02-28T07:43:59;-1.44;74.86
64111;DHT22;50401;48.188;11.566;2023-02-28T07:46:25;-1.55;75.03
64111;DHT22;50401;48.188;11.566;2023-02-28T07:48:51;-1.62;75.53
64111;DHT22;50401;48.188;11.566;2023-02-28T07:51:16;-1.75;76.31
64111;DHT22;50401;48.188;11.566;2023-02-28T07:53:42;-1.51;75.48
64111;DHT22;50401;48.188;11.566;2023-02-28T07:56:08;-1.39;74.97
64111;DHT22;50401;48.188;11.566;2023-02-28T07:58:33;-1.55;75.32
64111;DHT22;50401;48.188;11.566;2023-02-28T08:01:09;-1.44;74.84
64111;DHT22;50401;48.188;11.566;2023-02-28T08:03:36;-1.58;75.36
64111;DHT22;50401;48.188;11.566;2023-02-28T08:06:06;-1.79;75.90
64111;DHT22;50401;48.188;11.566;2023-02-28T08:08:33;-1.57;75.26
64111;DHT22;50401;48.188;11.566;2023-02-28T08:11:02;-1.41;74.94
64111;DHT22;50401;48.188;11.566;2023-02-28T08:13:28;-1.46;74.71
64111;DHT22;50401;48.188;11.566;2023-02-28T08:15:54;-1.48;74.65
64111;DHT22;50401;48.188;11.566;2023-02-28T08:18:20;-1.74;75.16
64111;DHT22;50401;48.188;11.566;2023-02-28T08:20:46;-1.79;75.81
64111;DHT22;50401;48.188;11.566;2023-02-28T08:23:12;-1.74;75.25
64111;DHT22;50401;48.188;11.566;2023-02-28T08:25:37;-1.57;75.74
64111;DHT22;50401;48.188;11.566;2023-02-28T08:28:02;-1.36;75.19
64111;DHT22;50401;48.188;11.566;2023-02-28T08:30:28;-1.30;74.73
64111;DHT22;50401;48.188;11.566;2023-02-28T08:32:53;-1.27;74.50
64111;DHT22;50401;48.188;11.566;2023-02-28T08:35:20;-1.75;75.65
64111;DHT22;50401;48.188;11.566;2023-02-28T08:37:49;-1.68;75.98
64111;DHT22;50401;48.188;11.566;2023-02-28T08:40:16;-1.64;76.02
64111;DHT22;50401;48.188;11.566;2023-02-28T08:42:46;-1.47;75.21
64111;DHT22;50401;48.188;11.566;2023-02-28T08:45:13;-1.25;74.79
64111;DHT22;50401;48.188;11.566;2023-02-28T08:47:40;-1.32;75.06
64111;DHT22;50401;48.188;11.566;2023-02-28T08:50:07;-1.69;75.61
64111;DHT22;50401;48.188;11.566;2023-02-28T08:52:33;-1.43;75.56
64111;DHT22;50401;48.188;11.566;2023-02-28T08:54:58;-1.57;75.67
64111;DHT22;50401;48.188;11.566;2023-02-28T08:57:24;-1.34;74.71
64111;DHT22;50401;48.188;11.566;2023-02-28T08:59:51;-1.29;74.33
64111;DHT22;50401;48.188;11.566;2023-02-28T09:02:17;-1.27;74.11
64111;DHT22;50401;48.188;11.566;2023-02-28T09:04:42;-1.25;74.31
64111;DHT22;50401;48.188;11.566;2023-02-28T09:07:10;-1.50;75.30
64111;DHT22;50401;48.188;11.566;2023-02-28T09:09:36;-1.27;74.96
64111;DHT22;50401;48.188;11.566;2023-02-28T09:12:02;-1.69;75.70
64111;DHT22;50401;48.188;11.566;2023-02-28T09:14:28;-1.48;75.45
64111;DHT22;50401;48.188;11.566;2023-02-28T09:16:53;-1.69;75.41
64111;DHT22;50401;48.188;11.566;2023-02-28T09:19:19;-1.51;75.66
64111;DHT22;50401;48.188;11.566;2023-02-28T09:21:45;-1.12;74.55
64111;DHT22;50401;48.188;11.566;2023-02-28T09:24:10;-0.96;73.61
64111;DHT22;50401;48.188;11.566;2023-02-28T09:26:38;-0.91;73.30
64111;DHT22;50401;48.188;11.566;2023-02-28T09:29:04;-0.78;73.22
64111;DHT22;50401;48.188;11.566;2023-02-28T09:31:29;-0.63;72.98
64111;DHT22;50401;48.188;11.566;2023-02-28T09:33:56;-0.68;72.68
64111;DHT22;50401;48.188;11.566;2023-02-28T09:36:23;-1.23;74.11
64111;DHT22;50401;48.188;11.566;2023-02-28T09:38:49;-0.98;73.70
64111;DHT22;50401;48.188;11.566;2023-02-28T09:41:27;-0.87;73.54
64111;DHT22;50401;48.188;11.566;2023-02-28T09:43:59;-0.84;73.41
64111;DHT22;50401;48.188;11.566;2023-02-28T09:49:10;-0.68;72.87
64111;DHT22;50401;48.188;11.566;2023-02-28T09:52:00;-0.71;72.10
64111;DHT22;50401;48.188;11.566;2023-02-28T09:54:29;-0.91;72.36
64111;DHT22;50401;48.188;11.566;2023-02-28T09:56:59;-0.84;71.93
64111;DHT22;50401;48.188;11.566;2023-02-28T10:02:19;-1.02;72.61
64111;DHT22;50401;48.188;11.566;2023-02-28T10:04:49;-0.84;72.59
64111;DHT22;50401;48.188;11.566;2023-02-28T10:10:26;-0.91;72.09
64111;DHT22;50401;48.188;11.566;2023-02-28T10:12:55;-0.58;72.29
64111;DHT22;50401;48.188;11.566;2023-02-28T10:15:24;-0.41;71.66
64111;DHT22;50401;48.188;11.566;2023-02-28T10:17:54;-0.56;71.92
64111;DHT22;50401;48.188;11.566;2023-02-28T10:20:23;-0.29;70.84
64111;DHT22;50401;48.188;11.566;2023-02-28T10:25:44;-0.19;70.90
64111;DHT22;50401;48.188;11.566;2023-02-28T10:28:15;-0.54;71.48
64111;DHT22;50401;48.188;11.566;2023-02-28T10:30:44;0.02;71.22
64111;DHT22;50401;48.188;11.566;2023-02-28T10:35:54;0.36;70.03
64111;DHT22;50401;48.188;11.566;2023-02-28T10:38:32;0.48;68.93
64111;DHT22;50401;48.188;11.566;2023-02-28T10:41:07;0.64;68.53
64111;DHT22;50401;48.188;11.566;2023-02-28T10:43:33;0.12;69.21
64111;DHT22;50401;48.188;11.566;2023-02-28T10:48:34;0.53;69.11
64111;DHT22;50401;48.188;11.566;2023-02-28T10:51:01;0.95;68.28
64111;DHT22;50401;48.188;11.566;2023-02-28T10:53:49;1.17;67.34
64111;DHT22;50401;48.188;11.566;2023-02-28T10:56:18;0.54;69.19
64111;DHT22;50401;48.188;11.566;2023-02-28T10:58:56;1.00;67.94
64111;DHT22;50401;48.188;11.566;2023-02-28T11:03:57;0.97;68.49
64111;DHT22;50401;48.188;11.566;2023-02-28T11:06:26;1.01;68.25
64111;DHT22;50401;48.188;11.566;2023-02-28T11:08:57;0.72;68.96
64111;DHT22;50401;48.188;11.566;2023-02-28T11:11:26;0.71;68.62
64111;DHT22;50401;48.188;11.566;2023-02-28T11:14:17;0.24;70.04
64111;DHT22;50401;48.188;11.566;2023-02-28T11:16:44;0.33;68.99
64111;DHT22;50401;48.188;11.566;2023-02-28T11:19:19;0.54;69.04
64111;DHT22;50401;48.188;11.566;2023-02-28T11:21:53;0.76;68.61
64111;DHT22;50401;48.188;11.566;2023-02-28T11:24:25;1.04;67.63
64111;DHT22;50401;48.188;11.566;2023-02-28T11:26:52;0.75;68.03
64111;DHT22;50401;48.188;11.566;2023-02-28T11:29:27;0.53;69.33
64111;DHT22;50401;48.188;11.566;2023-02-28T11:34:34;0.68;69.28
64111;DHT22;50401;48.188;11.566;2023-02-28T11:37:01;0.83;69.01
64111;DHT22;50401;48.188;11.566;2023-02-28T11:39:30;1.13;68.53
64111;DHT22;50401;48.188;11.566;2023-02-28T11:42:11;1.03;67.86
64111;DHT22;50401;48.188;11.566;2023-02-28T11:50:39;1.92;66.31
64111;DHT22;50401;48.188;11.566;2023-02-28T11:55:46;1.73;66.46
64111;DHT22;50401;48.188;11.566;2023-02-28T11:58:36;1.76;66.24
64111;DHT22;50401;48.188;11.566;2023-02-28T12:06:22;1.54;66.79
64111;DHT22;50401;48.188;11.566;2023-02-28T12:20:49;2.09;65.10
64111;DHT22;50401;48.188;11.566;2023-02-28T12:29:17;1.89;66.10
64111;DHT22;50401;48.188;11.566;2023-02-28T12:34:19;1.89;65.79
64111;DHT22;50401;48.188;11.566;2023-02-28T12:36:47;1.83;65.91
64111;DHT22;50401;48.188;11.566;2023-02-28T12:39:28;1.63;66.56
64111;DHT22;50401;48.188;11.566;2023-02-28T12:42:01;1.99;66.07
64111;DHT22;50401;48.188;11.566;2023-02-28T12:44:39;2.07;65.70
64111;DHT22;50401;48.188;11.566;2023-02-28T12:47:15;2.09;65.22
64111;DHT22;50401;48.188;11.566;2023-02-28T12:50:08;1.97;65.76
64111;DHT22;50401;48.188;11.566;2023-02-28T12:55:46;2.03;65.66
64111;DHT22;50401;48.188;11.566;2023-02-28T12:58:35;2.22;64.93
64111;DHT22;50401;48.188;11.566;2023-02-28T13:01:10;2.21;65.18
64111;DHT22;50401;48.188;11.566;2023-02-28T13:03:48;2.28;64.89
64111;DHT22;50401;48.188;11.566;2023-02-28T13:09:11;1.96;66.13
64111;DHT22;50401;48.188;11.566;2023-02-28T13:11:39;1.80;66.44
64111;DHT22;50401;48.188;11.566;2023-02-28T13:14:16;2.06;66.14
64111;DHT22;50401;48.188;11.566;2023-02-28T13:22:04;2.13;65.49
64111;DHT22;50401;48.188;11.566;2023-02-28T13:29:37;2.32;64.73
64111;DHT22;50401;48.188;11.566;2023-02-28T13:34:39;2.49;65.15
64111;DHT22;50401;48.188;11.566;2023-02-28T13:39:54;2.60;64.41
64111;DHT22;50401;48.188;11.566;2023-02-28T13:42:35;2.35;64.75
64111;DHT22;50401;48.188;11.566;2023-02-28T13:47:41;2.14;65.34
64111;DHT22;50401;48.188;11.566;2023-02-28T13:50:27;2.41;64.88
64111;DHT22;50401;48.188;11.566;2023-02-28T13:55:55;2.60;64.44
64111;DHT22;50401;48.188;11.566;2023-02-28T14:01:15;2.70;64.00
64111;DHT22;50401;48.188;11.566;2023-02-28T14:06:48;2.72;64.24
64111;DHT22;50401;48.188;11.566;2023-02-28T14:09:24;2.64;64.40
64111;DHT22;50401;48.188;11.566;2023-02-28T14:11:50;2.75;63.75
64111;DHT22;50401;48.188;11.566;2023-02-28T14:17:02;2.80;63.90
64111;DHT22;50401;48.188;11.566;2023-02-28T14:19:30;2.83;63.60
64111;DHT22;50401;48.188;11.566;2023-02-28T14:25:09;2.60;64.20
64111;DHT22;50401;48.188;11.566;2023-02-28T14:27:42;2.59;64.17
64111;DHT22;50401;48.188;11.566;2023-02-28T14:30:29;2.57;64.16
64111;DHT22;50401;48.188;11.566;2023-02-28T14:38:53;2.70;64.34
64111;DHT22;50401;48.188;11.566;2023-02-28T14:41:22;2.77;64.00
64111;DHT22;50401;48.188;11.566;2023-02-28T14:43:57;2.76;63.87
64111;DHT22;50401;48.188;11.566;2023-02-28T14:46:25;2.86;63.78
64111;DHT22;50401;48.188;11.566;2023-02-28T14:48:52;2.81;63.36
64111;DHT22;50401;48.188;11.566;2023-02-28T14:51:22;2.81;63.74
64111;DHT22;50401;48.188;11.566;2023-02-28T14:53:57;2.79;63.94
64111;DHT22;50401;48.188;11.566;2023-02-28T14:56:35;2.76;64.15
64111;DHT22;50401;48.188;11.566;2023-02-28T14:59:02;2.62;64.58
64111;DHT22;50401;48.188;11.566;2023-02-28T15:01:28;2.48;65.31
64111;DHT22;50401;48.188;11.566;2023-02-28T15:04:25;2.59;64.92
64111;DHT22;50401;48.188;11.566;2023-02-28T15:07:13;2.55;65.01
64111;DHT22;50401;48.188;11.566;2023-02-28T15:09:39;2.76;64.94
64111;DHT22;50401;48.188;11.566;2023-02-28T15:12:04;2.88;64.33
64111;DHT22;50401;48.188;11.566;2023-02-28T15:14:31;2.88;63.99
64111;DHT22;50401;48.188;11.566;2023-02-28T15:17:03;2.69;64.57
64111;DHT22;50401;48.188;11.566;2023-02-28T15:19:36;2.84;64.34
64111;DHT22;50401;48.188;11.566;2023-02-28T15:22:06;2.87;64.59
64111;DHT22;50401;48.188;11.566;2023-02-28T15:24:49;2.69;64.63
64111;DHT22;50401;48.188;11.566;2023-02-28T15:29:53;2.70;65.26
64111;DHT22;50401;48.188;11.566;2023-02-28T15:32:36;2.76;65.32
64111;DHT22;50401;48.188;11.566;2023-02-28T15:35:28;2.95;65.12
64111;DHT22;50401;48.188;11.566;2023-02-28T15:38:01;2.90;64.68
64111;DHT22;50401;48.188;11.566;2023-02-28T15:40:30;2.87;64.85
64111;DHT22;50401;48.188;11.566;2023-02-28T15:43:06;2.93;65.15
64111;DHT22;50401;48.188;11.566;2023-02-28T15:45:41;2.91;65.09
64111;DHT22;50401;48.188;11.566;2023-02-28T15:48:20;2.97;64.95
64111;DHT22;50401;48.188;11.566;2023-02-28T15:51:16;2.88;64.82
64111;DHT22;50401;48.188;11.566;2023-02-28T15:54:01;2.90;64.72
64111;DHT22;50401;48.188;11.566;2023-02-28T15:59:07;2.90;65.06
64111;DHT22;50401;48.188;11.566;2023-02-28T16:01:35;2.86;65.12
64111;DHT22;50401;48.188;11.566;2023-02-28T16:04:16;2.83;65.07
64111;DHT22;50401;48.188;11.566;2023-02-28T16:06:46;2.67;65.82
64111;DHT22;50401;48.188;11.566;2023-02-28T16:09:25;2.76;65.86
64111;DHT22;50401;48.188;11.566;2023-02-28T16:11:55;2.81;65.60
64111;DHT22;50401;48.188;11.566;2023-02-28T16:14:25;2.81;65.42
64111;DHT22;50401;48.188;11.566;2023-02-28T16:16:54;2.73;65.56
64111;DHT22;50401;48.188;11.566;2023-02-28T16:19:21;2.50;66.08
64111;DHT22;50401;48.188;11.566;2023-02-28T16:21:48;2.53;66.02
64111;DHT22;50401;48.188;11.566;2023-02-28T16:24:14;2.63;65.78
64111;DHT22;50401;48.188;11.566;2023-02-28T16:26:40;2.67;65.53
64111;DHT22;50401;48.188;11.566;2023-02-28T16:29:08;2.67;65.45
64111;DHT22;50401;48.188;11.566;2023-02-28T16:31:37;2.63;66.13
64111;DHT22;50401;48.188;11.566;2023-02-28T16:34:03;2.62;66.08
64111;DHT22;50401;48.188;11.566;2023-02-28T16:36:29;2.67;66.03
64111;DHT22;50401;48.188;11.566;2023-02-28T16:38:54;2.69;65.91
64111;DHT22;50401;48.188;11.566;2023-02-28T16:41:29;2.67;65.83
64111;DHT22;50401;48.188;11.566;2023-02-28T16:43:55;2.59;66.29
64111;DHT22;50401;48.188;11.566;2023-02-28T16:46:29;2.60;65.93
64111;DHT22;50401;48.188;11.566;2023-02-28T16:48:55;2.62;65.80
64111;DHT22;50401;48.188;11.566;2023-02-28T16:51:21;2.44;66.34
64111;DHT22;50401;48.188;11.566;2023-02-28T16:53:47;2.46;66.58
64111;DHT22;50401;48.188;11.566;2023-02-28T16:56:16;2.53;66.21
64111;DHT22;50401;48.188;11.566;2023-02-28T16:58:43;2.57;66.23
64111;DHT22;50401;48.188;11.566;2023-02-28T17:01:11;2.59;66.13
64111;DHT22;50401;48.188;11.566;2023-02-28T17:03:37;2.53;66.29
64111;DHT22;50401;48.188;11.566;2023-02-28T17:06:03;2.52;66.38
64111;DHT22;50401;48.188;11.566;2023-02-28T17:08:30;2.49;66.64
64111;DHT22;50401;48.188;11.566;2023-02-28T17:10:57;2.53;66.63
64111;DHT22;50401;48.188;11.566;2023-02-28T17:13:23;2.53;66.77
64111;DHT22;50401;48.188;11.566;2023-02-28T17:15:49;2.52;66.77
64111;DHT22;50401;48.188;11.566;2023-02-28T17:18:17;2.55;66.90
64111;DHT22;50401;48.188;11.566;2023-02-28T17:20:45;2.52;66.92
64111;DHT22;50401;48.188;11.566;2023-02-28T17:23:10;2.49;67.01
64111;DHT22;50401;48.188;11.566;2023-02-28T17:25:36;2.48;66.97
64111;DHT22;50401;48.188;11.566;2023-02-28T17:28:01;2.45;67.27
64111;DHT22;50401;48.188;11.566;2023-02-28T17:30:27;2.49;67.21
64111;DHT22;50401;48.188;11.566;2023-02-28T17:32:54;2.49;67.28
64111;DHT22;50401;48.188;11.566;2023-02-28T17:35:20;2.55;67.28
64111;DHT22;50401;48.188;11.566;2023-02-28T17:37:46;2.57;67.27
64111;DHT22;50401;48.188;11.566;2023-02-28T17:40:16;2.57;67.28
64111;DHT22;50401;48.188;11.566;2023-02-28T17:42:42;2.59;67.01
64111;DHT22;50401;48.188;11.566;2023-02-28T17:45:08;2.57;67.19
64111;DHT22;50401;48.188;11.566;2023-02-28T17:47:37;2.62;67.27
64111;DHT22;50401;48.188;11.566;2023-02-28T17:50:03;2.60;67.23
64111;DHT22;50401;48.188;11.566;2023-02-28T17:52:28;2.56;67.35
64111;DHT22;50401;48.188;11.566;2023-02-28T17:54:54;2.62;67.27
64111;DHT22;50401;48.188;11.566;2023-02-28T17:57:20;2.59;67.41
64111;DHT22;50401;48.188;11.566;2023-02-28T17:59:46;2.55;67.47
64111;DHT22;50401;48.188;11.566;2023-02-28T18:02:12;2.62;67.49